sensor_id;sensor_type;location;lat;lon;timestamp;temperature;humidity
2447;DHT22;26430;48.818;9.244;2022-10-31T00:01:27;13.20;99.90
2447;DHT22;26430;48.818;9.244;2022-10-31T00:03:54;13.20;99.90
2447;DHT22;26430;48.818;9.244;2022-10-31T00:06:20;13.20;99.90
2447;DHT22;26430;48.818;9.244;2022-10-31T00:08:54;13.10;99.90
2447;DHT22;26430;48.818;9.244;2022-10-31T00:11:20;13.00;99.90
2447;DHT22;26430;48.818;9.244;2022-10-31T00:13:45;13.00;99.90
2447;DHT22;26430;48.818;9.244;2022-10-31T00:16:22;12.90;99.90
2447;DHT22;26430;48.818;9.244;2022-10-31T00:18:53;12.90;99.90
2447;DHT22;26430;48.818;9.244;2022-10-31T00:21:19;12.90;99.90
2447;DHT22;26430;48.818;9.244;2022-10-31T00:23:45;12.90;99.90
2447;DHT22;26430;48.818;9.244;2022-10-31T00:26:11;12.80;99.90
2447;DHT22;26430;48.818;9.244;2022-10-31T00:28:37;12.80;99.90
2447;DHT22;26430;48.818;9.244;2022-10-31T00:31:04;12.90;99.90
2447;DHT22;26430;48.818;9.244;2022-10-31T00:33:30;12.90;99.90
2447;DHT22;26430;48.818;9.244;2022-10-31T00:35:58;12.90;99.90
2447;DHT22;26430;48.818;9.244;2022-10-31T00:38:24;12.90;99.90
2447;DHT22;26430;48.818;9.244;2022-10-31T00:40:49;12.70;99.90
2447;DHT22;26430;48.818;9.244;2022-10-31T00:43:15;12.70;99.90
2447;DHT22;26430;48.818;9.244;2022-10-31T00:45:42;12.70;99.90
2447;DHT22;26430;48.818;9.244;2022-10-31T00:48:08;12.60;99.90
2447;DHT22;26430;48.818;9.244;2022-10-31T00:50:34;12.60;99.90
2447;DHT22;26430;48.818;9.244;2022-10-31T00:52:59;12.60;99.90
2447;DHT22;26430;48.818;9.244;2022-10-31T00:55:25;12.60;99.90
2447;DHT22;26430;48.818;9.244;2022-10-31T00:57:50;12.50;99.90
2447;DHT22;26430;48.818;9.244;2022-10-31T01:00:16;12.50;99.90
2447;DHT22;26430;48.818;9.244;2022-10-31T01:02:42;12.50;99.90
2447;DHT22;26430;48.818;9.244;2022-10-31T01:05:08;12.50;99.90
2447;DHT22;26430;48.818;9.244;2022-10-31T01:07:40;12.50;99.90
2447;DHT22;26430;48.818;9.244;2022-10-31T01:10:07;12.70;99.90
2447;DHT22;26430;48.818;9.244;2022-10-31T01:12:45;12.80;99.90
2447;DHT22;26430;48.818;9.244;2022-10-31T01:15:13;12.70;99.90
2447;DHT22;26430;48.818;9.244;2022-10-31T01:17:39;12.50;99.90
2447;DHT22;26430;48.818;9.244;2022-10-31T01:20:07;12.50;99.90
2447;DHT22;26430;48.818;9.244;2022-10-31T01:22:33;12.50;99.90
2447;DHT22;26430;48.818;9.244;2022-10-31T01:24:58;12.40;99.90
2447;DHT22;26430;48.818;9.244;2022-10-31T01:27:24;12.40;99.90
2447;DHT22;26430;48.818;9.244;2022-10-31T01:29:50;12.40;99.90
2447;DHT22;26430;48.818;9.244;2022-10-31T01:32:15;12.40;99.90
2447;DHT22;26430;48.818;9.244;2022-10-31T01:34:41;12.30;99.90
2447;DHT22;26430;48.818;9.244;2022-10-31T01:37:07;12.40;99.90
2447;DHT22;26430;48.818;9.244;2022-10-31T01:39:33;12.40;99.90
2447;DHT22;26430;48.818;9.244;2022-10-31T01:41:59;12.40;99.90
2447;DHT22;26430;48.818;9.244;2022-10-31T01:46:55;12.40;99.90
2447;DHT22;26430;48.818;9.244;2022-10-31T01:49:45;12.40;99.90
2447;DHT22;26430;48.818;9.244;2022-10-31T01:54:51;12.50;99.90
2447;DHT22;26430;48.818;9.244;2022-10-31T01:57:20;12.40;99.90
2447;DHT22;26430;48.818;9.244;2022-10-31T01:59:49;12.30;99.90
2447;DHT22;26430;48.818;9.244;2022-10-31T02:02:17;12.30;99.90
2447;DHT22;26430;48.818;9.244;2022-10-31T02:04:44;12.30;99.90
2447;DHT22;26430;48.818;9.244;2022-10-31T02:07:14;12.30;99.90
2447;DHT22;26430;48.818;9.244;2022-10-31T02:09:42;12.30;99.90
2447;DHT22;26430;48.818;9.244;2022-10-31T02:12:09;12.30;99.90
2447;DHT22;26430;48.818;9.244;2022-10-31T02:14:36;12.20;99.90
2447;DHT22;26430;48.818;9.244;2022-10-31T02:17:03;12.30;99.90
2447;DHT22;26430;48.818;9.244;2022-10-31T02:20:23;12.30;99.90
2447;DHT22;26430;48.818;9.244;2022-10-31T02:22:27;12.20;99.90
2447;DHT22;26430;48.818;9.244;2022-10-31T02:25:20;12.20;99.90
2447;DHT22;26430;48.818;9.244;2022-10-31T02:35:54;12.10;99.90
2447;DHT22;26430;48.818;9.244;2022-10-31T02:38:30;12.20;99.90
2447;DHT22;26430;48.818;9.244;2022-10-31T02:46:50;12.00;99.90
2447;DHT22;26430;48.818;9.244;2022-10-31T02:51:49;11.90;99.90
2447;DHT22;26430;48.818;9.244;2022-10-31T02:54:22;11.90;99.90
2447;DHT22;26430;48.818;9.244;2022-10-31T02:56:49;11.90;99.90
2447;DHT22;26430;48.818;9.244;2022-10-31T02:59:16;11.90;99.90
2447;DHT22;26430;48.818;9.244;2022-10-31T03:15:23;11.60;99.90
2447;DHT22;26430;48.818;9.244;2022-10-31T03:18:13;11.70;99.90
2447;DHT22;26430;48.818;9.244;2022-10-31T03:20:44;11.70;99.90
2447;DHT22;26430;48.818;9.244;2022-10-31T03:23:14;11.70;99.90
2447;DHT22;26430;48.818;9.244;2022-10-31T03:25:42;11.90;99.90
2447;DHT22;26430;48.818;9.244;2022-10-31T03:28:11;12.00;99.90
2447;DHT22;26430;48.818;9.244;2022-10-31T03:30:40;12.10;99.90
2447;DHT22;26430;48.818;9.244;2022-10-31T03:33:10;12.20;99.90
2447;DHT22;26430;48.818;9.244;2022-10-31T03:35:40;12.10;99.90
2447;DHT22;26430;48.818;9.244;2022-10-31T03:38:07;12.10;99.90
2447;DHT22;26430;48.818;9.244;2022-10-31T03:40:36;12.20;99.90
2447;DHT22;26430;48.818;9.244;2022-10-31T03:43:06;12.30;99.90
2447;DHT22;26430;48.818;9.244;2022-10-31T03:45:38;12.20;99.90
2447;DHT22;26430;48.818;9.244;2022-10-31T03:48:06;12.10;99.90
2447;DHT22;26430;48.818;9.244;2022-10-31T03:56:37;11.80;99.90
2447;DHT22;26430;48.818;9.244;2022-10-31T03:59:10;11.70;99.90
2447;DHT22;26430;48.818;9.244;2022-10-31T04:01:42;11.80;99.90
2447;DHT22;26430;48.818;9.244;2022-10-31T04:04:10;12.00;99.90
2447;DHT22;26430;48.818;9.244;2022-10-31T04:06:38;12.00;99.90
2447;DHT22;26430;48.818;9.244;2022-10-31T04:09:06;11.80;99.90
2447;DHT22;26430;48.818;9.244;2022-10-31T04:11:36;11.80;99.90
2447;DHT22;26430;48.818;9.244;2022-10-31T04:14:04;11.70;99.90
2447;DHT22;26430;48.818;9.244;2022-10-31T04:16:30;11.80;99.90
2447;DHT22;26430;48.818;9.244;2022-10-31T04:18:56;11.70;99.90
2447;DHT22;26430;48.818;9.244;2022-10-31T04:21:27;11.60;99.90
2447;DHT22;26430;48.818;9.244;2022-10-31T04:23:56;11.60;99.90
2447;DHT22;26430;48.818;9.244;2022-10-31T04:26:22;11.50;99.90
2447;DHT22;26430;48.818;9.244;2022-10-31T04:28:48;11.50;99.90
2447;DHT22;26430;48.818;9.244;2022-10-31T04:31:14;11.50;99.90
2447;DHT22;26430;48.818;9.244;2022-10-31T04:33:39;11.50;99.90
2447;DHT22;26430;48.818;9.244;2022-10-31T04:36:05;11.50;99.90
2447;DHT22;26430;48.818;9.244;2022-10-31T04:38:31;11.40;99.90
2447;DHT22;26430;48.818;9.244;2022-10-31T04:40:56;11.50;99.90
2447;DHT22;26430;48.818;9.244;2022-10-31T04:43:22;11.40;99.90
2447;DHT22;26430;48.818;9.244;2022-10-31T04:45:48;11.30;99.90
2447;DHT22;26430;48.818;9.244;2022-10-31T04:48:13;11.30;99.90
2447;DHT22;26430;48.818;9.244;2022-10-31T04:50:39;11.40;99.90
2447;DHT22;26430;48.818;9.244;2022-10-31T04:53:05;11.30;99.90
2447;DHT22;26430;48.818;9.244;2022-10-31T04:55:31;11.20;99.90
2447;DHT22;26430;48.818;9.244;2022-10-31T04:57:56;11.20;99.90
2447;DHT22;26430;48.818;9.244;2022-10-31T05:00:22;11.10;99.90
2447;DHT22;26430;48.818;9.244;2022-10-31T05:02:53;11.00;99.90
2447;DHT22;26430;48.818;9.244;2022-10-31T05:05:22;11.10;99.90
2447;DHT22;26430;48.818;9.244;2022-10-31T05:07:49;11.10;99.90
2447;DHT22;26430;48.818;9.244;2022-10-31T05:10:18;11.10;99.90
2447;DHT22;26430;48.818;9.244;2022-10-31T05:12:52;11.00;99.90
2447;DHT22;26430;48.818;9.244;2022-10-31T05:15:20;11.00;99.90
2447;DHT22;26430;48.818;9.244;2022-10-31T05:17:46;11.00;99.90
2447;DHT22;26430;48.818;9.244;2022-10-31T05:20:13;11.10;99.90
2447;DHT22;26430;48.818;9.244;2022-10-31T05:22:49;11.00;99.90
2447;DHT22;26430;48.818;9.244;2022-10-31T05:25:16;11.00;99.90
2447;DHT22;26430;48.818;9.244;2022-10-31T05:27:46;11.00;99.90
2447;DHT22;26430;48.818;9.244;2022-10-31T05:30:14;11.00;99.90
2447;DHT22;26430;48.818;9.244;2022-10-31T05:32:44;11.10;99.90
2447;DHT22;26430;48.818;9.244;2022-10-31T05:35:12;11.00;99.90
2447;DHT22;26430;48.818;9.244;2022-10-31T05:37:38;11.10;99.90
2447;DHT22;26430;48.818;9.244;2022-10-31T05:40:05;11.30;99.90
2447;DHT22;26430;48.818;9.244;2022-10-31T05:42:31;11.20;99.90
2447;DHT22;26430;48.818;9.244;2022-10-31T05:44:57;11.00;99.90
2447;DHT22;26430;48.818;9.244;2022-10-31T05:47:23;10.90;99.90
2447;DHT22;26430;48.818;9.244;2022-10-31T05:49:49;10.70;99.90
2447;DHT22;26430;48.818;9.244;2022-10-31T05:52:15;10.90;99.90
2447;DHT22;26430;48.818;9.244;2022-10-31T05:54:41;10.90;99.90
2447;DHT22;26430;48.818;9.244;2022-10-31T05:57:06;10.80;99.90
2447;DHT22;26430;48.818;9.244;2022-10-31T05:59:32;10.70;99.90
2447;DHT22;26430;48.818;9.244;2022-10-31T06:01:58;10.70;99.90
2447;DHT22;26430;48.818;9.244;2022-10-31T06:04:23;10.60;99.90
2447;DHT22;26430;48.818;9.244;2022-10-31T06:06:49;10.50;99.90
2447;DHT22;26430;48.818;9.244;2022-10-31T06:09:14;10.60;99.90
2447;DHT22;26430;48.818;9.244;2022-10-31T06:11:40;10.50;99.90
2447;DHT22;26430;48.818;9.244;2022-10-31T06:14:07;10.50;99.90
2447;DHT22;26430;48.818;9.244;2022-10-31T06:16:32;10.40;99.90
2447;DHT22;26430;48.818;9.244;2022-10-31T06:18:58;10.40;99.90
2447;DHT22;26430;48.818;9.244;2022-10-31T06:21:24;10.50;99.90
2447;DHT22;26430;48.818;9.244;2022-10-31T06:23:49;10.50;99.90
2447;DHT22;26430;48.818;9.244;2022-10-31T06:26:16;10.50;99.90
2447;DHT22;26430;48.818;9.244;2022-10-31T06:28:42;10.40;99.90
2447;DHT22;26430;48.818;9.244;2022-10-31T06:31:07;10.50;99.90
2447;DHT22;26430;48.818;9.244;2022-10-31T06:33:33;10.50;99.90
2447;DHT22;26430;48.818;9.244;2022-10-31T06:35:59;10.50;99.90
2447;DHT22;26430;48.818;9.244;2022-10-31T06:38:26;10.50;99.90
2447;DHT22;26430;48.818;9.244;2022-10-31T06:40:52;10.60;99.90
2447;DHT22;26430;48.818;9.244;2022-10-31T06:43:18;10.60;99.90
2447;DHT22;26430;48.818;9.244;2022-10-31T06:45:44;10.50;99.90
2447;DHT22;26430;48.818;9.244;2022-10-31T06:48:10;10.60;99.90
2447;DHT22;26430;48.818;9.244;2022-10-31T06:50:35;10.60;99.90
2447;DHT22;26430;48.818;9.244;2022-10-31T06:53:01;10.60;99.90
2447;DHT22;26430;48.818;9.244;2022-10-31T06:55:27;10.60;99.90
2447;DHT22;26430;48.818;9.244;2022-10-31T06:57:53;10.70;99.90
2447;DHT22;26430;48.818;9.244;2022-10-31T07:00:20;10.80;99.90
2447;DHT22;26430;48.818;9.244;2022-10-31T07:02:58;10.80;99.90
2447;DHT22;26430;48.818;9.244;2022-10-31T07:05:25;10.80;99.90
2447;DHT22;26430;48.818;9.244;2022-10-31T07:07:59;10.90;99.90
2447;DHT22;26430;48.818;9.244;2022-10-31T07:10:27;10.90;99.90
2447;DHT22;26430;48.818;9.244;2022-10-31T07:12:57;11.00;99.90
2447;DHT22;26430;48.818;9.244;2022-10-31T07:15:23;11.00;99.90
2447;DHT22;26430;48.818;9.244;2022-10-31T07:17:50;11.10;99.90
2447;DHT22;26430;48.818;9.244;2022-10-31T07:20:16;11.20;99.90
2447;DHT22;26430;48.818;9.244;2022-10-31T07:22:41;11.50;99.90
2447;DHT22;26430;48.818;9.244;2022-10-31T07:25:07;11.50;99.90
2447;DHT22;26430;48.818;9.244;2022-10-31T07:27:40;11.60;99.90
2447;DHT22;26430;48.818;9.244;2022-10-31T07:30:07;11.90;99.90
2447;DHT22;26430;48.818;9.244;2022-10-31T07:32:47;11.70;99.90
2447;DHT22;26430;48.818;9.244;2022-10-31T07:35:15;11.30;99.90
2447;DHT22;26430;48.818;9.244;2022-10-31T07:37:41;11.20;99.90
2447;DHT22;26430;48.818;9.244;2022-10-31T07:40:08;10.90;99.90
2447;DHT22;26430;48.818;9.244;2022-10-31T07:42:37;10.70;99.90
2447;DHT22;26430;48.818;9.244;2022-10-31T07:45:04;10.80;99.90
2447;DHT22;26430;48.818;9.244;2022-10-31T07:47:37;11.10;99.90
2447;DHT22;26430;48.818;9.244;2022-10-31T07:50:03;11.10;99.90
2447;DHT22;26430;48.818;9.244;2022-10-31T07:52:28;11.20;99.90
2447;DHT22;26430;48.818;9.244;2022-10-31T07:54:54;11.30;99.90
2447;DHT22;26430;48.818;9.244;2022-10-31T07:57:19;11.40;99.90
2447;DHT22;26430;48.818;9.244;2022-10-31T07:59:45;11.50;99.90
2447;DHT22;26430;48.818;9.244;2022-10-31T08:02:11;11.70;99.90
2447;DHT22;26430;48.818;9.244;2022-10-31T08:04:36;11.60;99.90
2447;DHT22;26430;48.818;9.244;2022-10-31T08:07:02;11.50;99.90
2447;DHT22;26430;48.818;9.244;2022-10-31T08:09:28;11.30;99.90
2447;DHT22;26430;48.818;9.244;2022-10-31T08:11:53;11.30;99.90
2447;DHT22;26430;48.818;9.244;2022-10-31T08:14:19;11.20;99.90
2447;DHT22;26430;48.818;9.244;2022-10-31T08:16:45;11.10;99.90
2447;DHT22;26430;48.818;9.244;2022-10-31T08:19:10;11.30;99.90
2447;DHT22;26430;48.818;9.244;2022-10-31T08:21:36;11.30;99.90
2447;DHT22;26430;48.818;9.244;2022-10-31T08:24:02;11.60;99.90
2447;DHT22;26430;48.818;9.244;2022-10-31T08:26:27;11.90;99.90
2447;DHT22;26430;48.818;9.244;2022-10-31T08:28:53;11.90;99.90
2447;DHT22;26430;48.818;9.244;2022-10-31T08:31:20;11.80;99.90
2447;DHT22;26430;48.818;9.244;2022-10-31T08:33:46;12.00;99.90
2447;DHT22;26430;48.818;9.244;2022-10-31T08:36:12;11.90;99.90
2447;DHT22;26430;48.818;9.244;2022-10-31T08:38:38;11.90;99.90
2447;DHT22;26430;48.818;9.244;2022-10-31T08:41:03;12.10;99.90
2447;DHT22;26430;48.818;9.244;2022-10-31T08:43:29;12.10;99.90
2447;DHT22;26430;48.818;9.244;2022-10-31T08:45:54;12.40;99.90
2447;DHT22;26430;48.818;9.244;2022-10-31T08:48:20;12.50;99.90
2447;DHT22;26430;48.818;9.244;2022-10-31T08:50:46;12.60;99.90
2447;DHT22;26430;48.818;9.244;2022-10-31T08:53:15;12.50;99.90
2447;DHT22;26430;48.818;9.244;2022-10-31T08:55:42;12.70;99.90
2447;DHT22;26430;48.818;9.244;2022-10-31T08:58:11;12.90;99.90
2447;DHT22;26430;48.818;9.244;2022-10-31T09:00:37;13.00;99.90
2447;DHT22;26430;48.818;9.244;2022-10-31T09:03:12;13.00;99.90
2447;DHT22;26430;48.818;9.244;2022-10-31T09:05:38;13.20;99.90
2447;DHT22;26430;48.818;9.244;2022-10-31T09:08:05;13.30;99.90
2447;DHT22;26430;48.818;9.244;2022-10-31T09:10:32;13.40;99.90
2447;DHT22;26430;48.818;9.244;2022-10-31T09:13:00;13.20;99.90
2447;DHT22;26430;48.818;9.244;2022-10-31T09:15:27;13.30;99.90
2447;DHT22;26430;48.818;9.244;2022-10-31T09:17:54;13.40;99.90
2447;DHT22;26430;48.818;9.244;2022-10-31T09:20:20;13.70;99.90
2447;DHT22;26430;48.818;9.244;2022-10-31T09:22:45;13.80;99.90
2447;DHT22;26430;48.818;9.244;2022-10-31T09:25:11;13.60;99.90
2447;DHT22;26430;48.818;9.244;2022-10-31T09:27:37;13.70;99.90
2447;DHT22;26430;48.818;9.244;2022-10-31T09:30:04;13.40;99.90
2447;DHT22;26430;48.818;9.244;2022-10-31T09:32:30;13.70;99.90
2447;DHT22;26430;48.818;9.244;2022-10-31T09:34:55;14.10;99.90
2447;DHT22;26430;48.818;9.244;2022-10-31T09:37:21;14.30;99.90
2447;DHT22;26430;48.818;9.244;2022-10-31T09:39:46;14.20;99.90
2447;DHT22;26430;48.818;9.244;2022-10-31T09:48:21;13.60;99.90
2447;DHT22;26430;48.818;9.244;2022-10-31T09:50:53;14.10;99.90
2447;DHT22;26430;48.818;9.244;2022-10-31T09:53:24;14.40;99.90
2447;DHT22;26430;48.818;9.244;2022-10-31T09:55:52;14.60;99.90
2447;DHT22;26430;48.818;9.244;2022-10-31T09:58:22;14.80;99.90
2447;DHT22;26430;48.818;9.244;2022-10-31T10:00:48;14.50;99.90
2447;DHT22;26430;48.818;9.244;2022-10-31T10:05:46;14.40;99.90
2447;DHT22;26430;48.818;9.244;2022-10-31T10:08:25;14.80;99.90
2447;DHT22;26430;48.818;9.244;2022-10-31T10:13:55;15.00;99.90
2447;DHT22;26430;48.818;9.244;2022-10-31T10:19:34;14.80;99.90
2447;DHT22;26430;48.818;9.244;2022-10-31T10:25:12;14.80;99.90
2447;DHT22;26430;48.818;9.244;2022-10-31T10:30:20;15.20;99.90
2447;DHT22;26430;48.818;9.244;2022-10-31T10:32:52;15.40;99.90
2447;DHT22;26430;48.818;9.244;2022-10-31T10:35:32;15.60;99.90
2447;DHT22;26430;48.818;9.244;2022-10-31T10:40:45;15.90;99.90
2447;DHT22;26430;48.818;9.244;2022-10-31T10:43:31;15.60;99.90
2447;DHT22;26430;48.818;9.244;2022-10-31T10:51:40;15.80;99.90
2447;DHT22;26430;48.818;9.244;2022-10-31T10:57:32;15.20;99.90
2447;DHT22;26430;48.818;9.244;2022-10-31T11:00:15;15.20;99.90
2447;DHT22;26430;48.818;9.244;2022-10-31T11:02:42;15.50;99.90
2447;DHT22;26430;48.818;9.244;2022-10-31T11:05:58;15.60;99.90
2447;DHT22;26430;48.818;9.244;2022-10-31T11:07:59;15.70;99.90
2447;DHT22;26430;48.818;9.244;2022-10-31T11:10:25;15.80;99.90
2447;DHT22;26430;48.818;9.244;2022-10-31T11:13:22;16.10;99.90
2447;DHT22;26430;48.818;9.244;2022-10-31T11:15:53;16.20;99.90
2447;DHT22;26430;48.818;9.244;2022-10-31T11:18:26;16.00;99.90
2447;DHT22;26430;48.818;9.244;2022-10-31T11:20:56;15.90;99.90
2447;DHT22;26430;48.818;9.244;2022-10-31T11:23:25;16.00;99.90
2447;DHT22;26430;48.818;9.244;2022-10-31T11:26:02;16.00;99.90
2447;DHT22;26430;48.818;9.244;2022-10-31T11:28:30;15.90;99.90
2447;DHT22;26430;48.818;9.244;2022-10-31T11:31:07;16.00;99.90
2447;DHT22;26430;48.818;9.244;2022-10-31T11:33:44;16.10;99.90
2447;DHT22;26430;48.818;9.244;2022-10-31T11:36:32;16.50;99.90
2447;DHT22;26430;48.818;9.244;2022-10-31T11:39:01;16.70;99.90
2447;DHT22;26430;48.818;9.244;2022-10-31T11:41:30;16.70;99.90
2447;DHT22;26430;48.818;9.244;2022-10-31T11:44:01;17.00;99.90
2447;DHT22;26430;48.818;9.244;2022-10-31T11:46:36;16.90;99.90
2447;DHT22;26430;48.818;9.244;2022-10-31T11:49:04;16.90;99.90
2447;DHT22;26430;48.818;9.244;2022-10-31T11:51:33;17.20;99.90
2447;DHT22;26430;48.818;9.244;2022-10-31T11:54:01;17.20;99.90
2447;DHT22;26430;48.818;9.244;2022-10-31T11:56:38;17.30;99.90
2447;DHT22;26430;48.818;9.244;2022-10-31T11:59:12;17.30;99.90
2447;DHT22;26430;48.818;9.244;2022-10-31T12:01:47;17.50;99.90
2447;DHT22;26430;48.818;9.244;2022-10-31T12:04:14;17.40;99.90
2447;DHT22;26430;48.818;9.244;2022-10-31T12:06:43;17.40;99.90
2447;DHT22;26430;48.818;9.244;2022-10-31T12:09:29;17.40;99.90
2447;DHT22;26430;48.818;9.244;2022-10-31T12:17:34;17.40;99.90
2447;DHT22;26430;48.818;9.244;2022-10-31T12:28:07;17.90;99.90
2447;DHT22;26430;48.818;9.244;2022-10-31T12:31:03;17.90;99.90
2447;DHT22;26430;48.818;9.244;2022-10-31T12:39:24;17.70;99.90
2447;DHT22;26430;48.818;9.244;2022-10-31T12:56:48;17.90;99.90
2447;DHT22;26430;48.818;9.244;2022-10-31T12:59:31;17.80;99.90
2447;DHT22;26430;48.818;9.244;2022-10-31T13:05:32;17.60;99.90
2447;DHT22;26430;48.818;9.244;2022-10-31T13:07:42;17.60;99.90
2447;DHT22;26430;48.818;9.244;2022-10-31T13:10:34;17.40;99.90
2447;DHT22;26430;48.818;9.244;2022-10-31T13:13:06;17.50;99.90
2447;DHT22;26430;48.818;9.244;2022-10-31T13:15:50;17.60;99.90
2447;DHT22;26430;48.818;9.244;2022-10-31T13:18:42;17.60;99.90
2447;DHT22;26430;48.818;9.244;2022-10-31T13:21:19;17.60;99.90
2447;DHT22;26430;48.818;9.244;2022-10-31T13:23:49;17.70;99.90
2447;DHT22;26430;48.818;9.244;2022-10-31T13:28:48;17.70;99.90
2447;DHT22;26430;48.818;9.244;2022-10-31T13:31:16;17.80;99.90
2447;DHT22;26430;48.818;9.244;2022-10-31T13:33:46;17.70;99.90
2447;DHT22;26430;48.818;9.244;2022-10-31T13:36:41;17.70;99.90
2447;DHT22;26430;48.818;9.244;2022-10-31T13:39:39;17.60;99.90
2447;DHT22;26430;48.818;9.244;2022-10-31T13:45:22;17.60;99.90
2447;DHT22;26430;48.818;9.244;2022-10-31T13:47:59;17.70;99.90
2447;DHT22;26430;48.818;9.244;2022-10-31T13:50:31;17.70;99.90
2447;DHT22;26430;48.818;9.244;2022-10-31T13:53:18;17.90;99.90
2447;DHT22;26430;48.818;9.244;2022-10-31T13:55:47;18.00;99.90
2447;DHT22;26430;48.818;9.244;2022-10-31T13:58:26;18.10;99.90
2447;DHT22;26430;48.818;9.244;2022-10-31T14:03:42;17.90;99.90
2447;DHT22;26430;48.818;9.244;2022-10-31T14:06:10;18.10;99.90
2447;DHT22;26430;48.818;9.244;2022-10-31T14:08:41;18.10;99.90
2447;DHT22;26430;48.818;9.244;2022-10-31T14:11:26;18.00;99.90
2447;DHT22;26430;48.818;9.244;2022-10-31T14:13:55;18.10;99.90
2447;DHT22;26430;48.818;9.244;2022-10-31T14:16:30;18.00;99.90
2447;DHT22;26430;48.818;9.244;2022-10-31T14:21:47;17.80;99.90
2447;DHT22;26430;48.818;9.244;2022-10-31T14:24:34;17.80;99.90
2447;DHT22;26430;48.818;9.244;2022-10-31T14:29:49;17.70;99.90
2447;DHT22;26430;48.818;9.244;2022-10-31T14:32:22;17.70;99.90
2447;DHT22;26430;48.818;9.244;2022-10-31T14:34:58;17.60;99.90
2447;DHT22;26430;48.818;9.244;2022-10-31T14:37:32;17.70;99.90
2447;DHT22;26430;48.818;9.244;2022-10-31T14:48:14;17.70;99.90
2447;DHT22;26430;48.818;9.244;2022-10-31T14:50:56;17.60;99.90
2447;DHT22;26430;48.818;9.244;2022-10-31T14:53:44;17.70;99.90
2447;DHT22;26430;48.818;9.244;2022-10-31T14:56:11;17.70;99.90
2447;DHT22;26430;48.818;9.244;2022-10-31T15:01:06;17.50;99.90
2447;DHT22;26430;48.818;9.244;2022-10-31T15:03:38;17.40;99.90
2447;DHT22;26430;48.818;9.244;2022-10-31T15:06:10;17.50;99.90
2447;DHT22;26430;48.818;9.244;2022-10-31T15:08:44;17.40;99.90
2447;DHT22;26430;48.818;9.244;2022-10-31T15:11:12;17.40;99.90
2447;DHT22;26430;48.818;9.244;2022-10-31T15:13:52;17.60;99.90
2447;DHT22;26430;48.818;9.244;2022-10-31T15:16:24;17.60;99.90
2447;DHT22;26430;48.818;9.244;2022-10-31T15:19:21;17.80;99.90
2447;DHT22;26430;48.818;9.244;2022-10-31T15:21:50;17.70;99.90
2447;DHT22;26430;48.818;9.244;2022-10-31T15:24:16;17.60;99.90
2447;DHT22;26430;48.818;9.244;2022-10-31T15:26:46;17.40;99.90
2447;DHT22;26430;48.818;9.244;2022-10-31T15:29:18;17.30;99.90
2447;DHT22;26430;48.818;9.244;2022-10-31T15:32:17;17.20;99.90
2447;DHT22;26430;48.818;9.244;2022-10-31T15:34:44;17.20;99.90
2447;DHT22;26430;48.818;9.244;2022-10-31T15:37:18;17.10;99.90
2447;DHT22;26430;48.818;9.244;2022-10-31T15:39:45;17.10;99.90
2447;DHT22;26430;48.818;9.244;2022-10-31T15:42:24;16.90;99.90
2447;DHT22;26430;48.818;9.244;2022-10-31T15:45:17;16.80;99.90
2447;DHT22;26430;48.818;9.244;2022-10-31T15:48:13;16.60;99.90
2447;DHT22;26430;48.818;9.244;2022-10-31T15:50:47;16.50;99.90
2447;DHT22;26430;48.818;9.244;2022-10-31T15:53:31;16.40;99.90
2447;DHT22;26430;48.818;9.244;2022-10-31T15:56:01;16.30;99.90
2447;DHT22;26430;48.818;9.244;2022-10-31T15:58:27;16.20;99.90
2447;DHT22;26430;48.818;9.244;2022-10-31T16:01:02;16.10;99.90
2447;DHT22;26430;48.818;9.244;2022-10-31T16:03:30;16.00;99.90
2447;DHT22;26430;48.818;9.244;2022-10-31T16:06:04;15.90;99.90
2447;DHT22;26430;48.818;9.244;2022-10-31T16:13:36;15.70;99.90
2447;DHT22;26430;48.818;9.244;2022-10-31T16:16:20;15.60;99.90
2447;DHT22;26430;48.818;9.244;2022-10-31T16:18:48;15.70;99.90
2447;DHT22;26430;48.818;9.244;2022-10-31T16:21:15;15.70;99.90
2447;DHT22;26430;48.818;9.244;2022-10-31T16:23:45;15.60;99.90
2447;DHT22;26430;48.818;9.244;2022-10-31T16:26:17;15.50;99.90
2447;DHT22;26430;48.818;9.244;2022-10-31T16:28:54;15.50;99.90
2447;DHT22;26430;48.818;9.244;2022-10-31T16:31:40;15.40;99.90
2447;DHT22;26430;48.818;9.244;2022-10-31T16:34:19;15.20;99.90
2447;DHT22;26430;48.818;9.244;2022-10-31T16:36:45;15.20;99.90
2447;DHT22;26430;48.818;9.244;2022-10-31T16:39:10;15.20;99.90
2447;DHT22;26430;48.818;9.244;2022-10-31T16:41:40;15.10;99.90
2447;DHT22;26430;48.818;9.244;2022-10-31T16:44:19;15.00;99.90
2447;DHT22;26430;48.818;9.244;2022-10-31T16:46:46;15.00;99.90
2447;DHT22;26430;48.818;9.244;2022-10-31T16:49:12;15.00;99.90
2447;DHT22;26430;48.818;9.244;2022-10-31T16:51:38;15.30;99.90
2447;DHT22;26430;48.818;9.244;2022-10-31T16:54:04;15.10;99.90
2447;DHT22;26430;48.818;9.244;2022-10-31T16:56:31;15.00;99.90
2447;DHT22;26430;48.818;9.244;2022-10-31T16:58:59;14.90;99.90
2447;DHT22;26430;48.818;9.244;2022-10-31T17:01:26;14.90;99.90
2447;DHT22;26430;48.818;9.244;2022-10-31T17:03:52;14.90;99.90
2447;DHT22;26430;48.818;9.244;2022-10-31T17:06:18;14.90;99.90
2447;DHT22;26430;48.818;9.244;2022-10-31T17:08:43;15.20;99.90
2447;DHT22;26430;48.818;9.244;2022-10-31T17:11:15;15.20;99.90
2447;DHT22;26430;48.818;9.244;2022-10-31T17:13:41;15.00;99.90
2447;DHT22;26430;48.818;9.244;2022-10-31T17:16:07;14.90;99.90
2447;DHT22;26430;48.818;9.244;2022-10-31T17:18:33;14.90;99.90
2447;DHT22;26430;48.818;9.244;2022-10-31T17:21:01;15.00;99.90
2447;DHT22;26430;48.818;9.244;2022-10-31T17:23:27;15.00;99.90
2447;DHT22;26430;48.818;9.244;2022-10-31T17:25:54;14.90;99.90
2447;DHT22;26430;48.818;9.244;2022-10-31T17:28:20;14.90;99.90
2447;DHT22;26430;48.818;9.244;2022-10-31T17:30:46;14.80;99.90
2447;DHT22;26430;48.818;9.244;2022-10-31T17:33:14;14.90;99.90
2447;DHT22;26430;48.818;9.244;2022-10-31T17:35:41;15.10;99.90
2447;DHT22;26430;48.818;9.244;2022-10-31T17:38:07;15.30;99.90
2447;DHT22;26430;48.818;9.244;2022-10-31T17:40:33;15.40;99.90
2447;DHT22;26430;48.818;9.244;2022-10-31T17:42:58;15.40;99.90
2447;DHT22;26430;48.818;9.244;2022-10-31T17:45:25;15.20;99.90
2447;DHT22;26430;48.818;9.244;2022-10-31T17:47:52;15.00;99.90
2447;DHT22;26430;48.818;9.244;2022-10-31T17:50:20;14.80;99.90
2447;DHT22;26430;48.818;9.244;2022-10-31T17:52:46;14.70;99.90
2447;DHT22;26430;48.818;9.244;2022-10-31T17:55:13;14.80;99.90
2447;DHT22;26430;48.818;9.244;2022-10-31T17:57:39;14.90;99.90
2447;DHT22;26430;48.818;9.244;2022-10-31T18:00:07;14.90;99.90
2447;DHT22;26430;48.818;9.244;2022-10-31T18:02:35;14.60;99.90
2447;DHT22;26430;48.818;9.244;2022-10-31T18:05:01;14.60;99.90
2447;DHT22;26430;48.818;9.244;2022-10-31T18:07:27;14.60;99.90
2447;DHT22;26430;48.818;9.244;2022-10-31T18:09:53;14.60;99.90
2447;DHT22;26430;48.818;9.244;2022-10-31T18:12:19;14.80;99.90
2447;DHT22;26430;48.818;9.244;2022-10-31T18:14:45;14.70;99.90
2447;DHT22;26430;48.818;9.244;2022-10-31T18:17:10;14.50;99.90
2447;DHT22;26430;48.818;9.244;2022-10-31T18:19:36;14.40;99.90
2447;DHT22;26430;48.818;9.244;2022-10-31T18:22:02;14.50;99.90